Time;durP1;ratioP1;P1;durP2;ratioP2;P2;SDS_P1;SDS_P2;PMS_P1;PMS_P2;Temp;Humidity;BMP_temperature;BMP_pressure;BME280_temperature;BME280_humidity;BME280_pressure;Samples;Min_cycle;Max_cycle;Signal;HPM_P1;HPM_P2
2021/08/09 00:00:15;;;;;;;6.65;1.38;;;14.50;99.90;;;;;;4747563;30;20059;-79
2021/08/09 00:02:41;;;;;;;9.45;1.58;;;14.50;99.90;;;;;;4730216;30;20055;-79
2021/08/09 00:05:08;;;;;;;7.28;1.88;;;14.50;99.90;;;;;;4764432;30;20430;-79
2021/08/09 00:07:34;;;;;;;6.05;1.80;;;14.50;99.90;;;;;;4718141;30;20500;-79
2021/08/09 00:10:01;;;;;;;4.82;1.20;;;14.50;99.90;;;;;;4735646;30;20039;-79
2021/08/09 00:12:27;;;;;;;9.05;1.75;;;14.40;99.90;;;;;;4746780;30;20062;-79
2021/08/09 00:14:54;;;;;;;4.80;1.35;;;14.40;99.90;;;;;;4720127;30;20059;-79
2021/08/09 00:17:20;;;;;;;4.97;1.50;;;14.40;99.90;;;;;;4762037;30;20468;-79
2021/08/09 00:19:47;;;;;;;3.28;1.27;;;14.40;99.90;;;;;;4749466;30;20512;-79
2021/08/09 00:22:13;;;;;;;5.88;1.27;;;14.40;99.90;;;;;;4745154;30;20064;-79
2021/08/09 00:24:40;;;;;;;6.10;1.52;;;14.40;99.90;;;;;;4762836;30;20047;-79
2021/08/09 00:27:06;;;;;;;6.93;1.70;;;14.40;99.90;;;;;;4763339;30;20039;-79
2021/08/09 00:29:33;;;;;;;4.78;1.20;;;14.40;99.90;;;;;;4732172;30;20685;-79
2021/08/09 00:32:10;;;;;;;6.88;1.55;;;14.40;99.90;;;;;;4718556;30;20056;-79
2021/08/09 00:34:38;;;;;;;8.93;1.52;;;14.30;99.90;;;;;;4762371;30;20048;-79
2021/08/09 00:37:05;;;;;;;8.93;1.73;;;14.30;99.90;;;;;;4717669;30;20531;-79
2021/08/09 00:39:32;;;;;;;7.88;1.60;;;14.30;99.90;;;;;;4748519;30;20044;-79
2021/08/09 00:42:00;;;;;;;8.77;1.90;;;14.30;99.90;;;;;;4732128;30;20047;-79
2021/08/09 00:44:26;;;;;;;11.55;1.92;;;14.30;99.90;;;;;;4735040;30;20060;-79
2021/08/09 00:47:00;;;;;;;8.15;1.52;;;14.30;99.90;;;;;;4748510;30;20047;-79
2021/08/09 00:49:27;;;;;;;8.23;1.52;;;14.30;99.90;;;;;;4734778;30;20048;-79
2021/08/09 00:52:01;;;;;;;13.48;2.05;;;14.30;99.90;;;;;;4761392;30;20039;-79
2021/08/09 00:54:32;;;;;;;6.82;1.77;;;14.30;99.90;;;;;;4733421;30;20067;-79
2021/08/09 00:57:00;;;;;;;7.90;1.30;;;14.30;99.90;;;;;;4734045;30;20405;-79
2021/08/09 00:59:28;;;;;;;7.15;1.95;;;14.30;99.90;;;;;;4747097;30;20516;-79
2021/08/09 01:01:55;;;;;;;6.68;1.63;;;14.30;99.90;;;;;;4743307;30;20385;-78
2021/08/09 01:04:23;;;;;;;11.63;1.45;;;14.30;99.90;;;;;;4718449;30;20058;-79
2021/08/09 01:06:50;;;;;;;9.20;1.55;;;14.30;99.90;;;;;;4761585;30;20047;-79
2021/08/09 01:09:26;;;;;;;7.78;1.83;;;14.30;99.90;;;;;;4730918;30;20051;-79
2021/08/09 01:11:56;;;;;;;5.63;1.40;;;14.20;99.90;;;;;;4731254;30;20051;-79
2021/08/09 01:14:47;;;;;;;5.15;1.58;;;14.20;99.90;;;;;;4761193;30;20054;-79
2021/08/09 01:17:16;;;;;;;5.05;1.38;;;14.20;99.90;;;;;;4762047;30;20047;-79
2021/08/09 01:20:02;;;;;;;6.28;1.50;;;14.20;99.90;;;;;;4729453;30;20052;-79
2021/08/09 01:22:41;;;;;;;7.13;1.63;;;14.10;99.90;;;;;;4751263;30;20063;-77
2021/08/09 01:25:23;;;;;;;7.38;1.98;;;14.10;99.90;;;;;;4755425;30;20058;-78
2021/08/09 01:27:53;;;;;;;10.05;2.00;;;14.10;99.90;;;;;;4740871;30;20038;-79
2021/08/09 01:30:21;;;;;;;7.07;1.90;;;14.10;99.90;;;;;;4739444;30;20044;-78
2021/08/09 01:32:49;;;;;;;10.80;2.40;;;14.10;99.90;;;;;;4752583;30;20035;-78
2021/08/09 01:35:21;;;;;;;5.00;1.80;;;14.10;99.90;;;;;;4742495;30;20071;-78
2021/08/09 01:37:53;;;;;;;5.57;1.83;;;14.10;99.90;;;;;;4757044;30;20055;-78
2021/08/09 01:40:22;;;;;;;5.90;1.88;;;14.10;99.90;;;;;;4741851;30;20044;-78
2021/08/09 01:42:50;;;;;;;7.25;1.60;;;14.10;99.90;;;;;;4755680;30;20051;-78
2021/08/09 01:45:20;;;;;;;7.95;1.55;;;14.00;99.90;;;;;;4730825;30;20416;-78
2021/08/09 01:47:47;;;;;;;10.23;1.58;;;14.00;99.90;;;;;;4754825;30;20388;-78
2021/08/09 01:50:16;;;;;;;4.50;1.20;;;14.00;99.90;;;;;;4759731;30;20040;-78
2021/08/09 01:52:44;;;;;;;7.03;1.58;;;14.10;99.90;;;;;;4728381;30;20373;-79
2021/08/09 01:55:15;;;;;;;9.55;2.67;;;14.00;99.90;;;;;;4744915;30;20059;-78
2021/08/09 01:57:47;;;;;;;7.80;1.90;;;14.00;99.90;;;;;;4730962;30;20061;-78
2021/08/09 02:00:16;;;;;;;6.00;1.70;;;14.00;99.90;;;;;;4745380;30;20055;-79
2021/08/09 02:02:43;;;;;;;11.00;1.90;;;14.00;99.90;;;;;;4742085;30;20056;-78
2021/08/09 02:05:16;;;;;;;8.57;1.60;;;14.00;99.90;;;;;;4731009;30;20381;-78
2021/08/09 02:07:50;;;;;;;8.25;1.85;;;14.00;99.90;;;;;;4744745;30;20408;-78
2021/08/09 02:10:21;;;;;;;6.88;1.50;;;14.00;99.90;;;;;;4743828;30;20545;-78
2021/08/09 02:12:51;;;;;;;6.10;1.60;;;14.00;99.90;;;;;;4757641;30;20035;-78
2021/08/09 02:15:21;;;;;;;5.95;1.20;;;14.00;99.90;;;;;;4742930;30;20071;-78
2021/08/09 02:17:56;;;;;;;4.72;1.23;;;14.00;99.90;;;;;;4743031;30;20058;-79
2021/08/09 02:20:32;;;;;;;3.90;1.08;;;14.00;99.90;;;;;;4760389;30;20043;-78
2021/08/09 02:23:08;;;;;;;9.07;1.83;;;14.00;99.90;;;;;;4743849;30;20516;-79
2021/08/09 02:25:36;;;;;;;11.85;2.30;;;14.00;99.90;;;;;;4758684;30;20052;-78
2021/08/09 02:28:13;;;;;;;6.30;1.20;;;14.00;99.90;;;;;;4729669;30;20063;-79
2021/08/09 02:31:03;;;;;;;8.05;1.80;;;14.10;99.90;;;;;;4728596;30;20047;-79
2021/08/09 02:33:31;;;;;;;4.82;1.20;;;14.10;99.90;;;;;;4742759;30;20044;-79
2021/08/09 02:36:01;;;;;;;8.15;1.50;;;14.10;99.90;;;;;;4730276;30;20060;-78
2021/08/09 02:38:31;;;;;;;10.15;1.92;;;14.10;99.90;;;;;;4758484;30;20044;-79
2021/08/09 02:41:00;;;;;;;6.53;1.50;;;14.10;99.90;;;;;;4728771;30;20056;-79
2021/08/09 02:43:28;;;;;;;7.28;1.60;;;14.10;99.90;;;;;;4757158;30;20449;-79
2021/08/09 02:45:57;;;;;;;6.35;1.23;;;14.10;99.90;;;;;;4743985;30;20056;-78
2021/08/09 02:48:25;;;;;;;13.38;2.20;;;14.10;99.90;;;;;;4744314;30;20039;-78
2021/08/09 02:50:52;;;;;;;6.82;1.83;;;14.10;99.90;;;;;;4742328;30;20060;-79
2021/08/09 02:53:21;;;;;;;9.52;1.40;;;14.10;99.90;;;;;;4743878;30;20054;-79
2021/08/09 02:55:53;;;;;;;8.23;1.80;;;14.00;99.90;;;;;;4743668;30;20064;-79
2021/08/09 02:58:20;;;;;;;9.27;2.38;;;14.00;99.90;;;;;;4745052;30;21279;-79
2021/08/09 03:00:47;;;;;;;6.53;1.30;;;14.10;99.90;;;;;;4728773;30;20580;-78
2021/08/09 03:03:18;;;;;;;8.38;1.42;;;14.00;99.90;;;;;;4744467;30;20052;-79
2021/08/09 03:05:45;;;;;;;7.35;2.00;;;14.00;99.90;;;;;;4758706;30;20047;-79
2021/08/09 03:08:12;;;;;;;8.55;2.08;;;14.00;99.90;;;;;;4758060;30;20559;-79
2021/08/09 03:10:40;;;;;;;9.15;1.60;;;14.00;99.90;;;;;;4742230;30;20062;-79
2021/08/09 03:13:10;;;;;;;9.05;1.60;;;14.00;99.90;;;;;;4741224;30;20063;-78
2021/08/09 03:15:38;;;;;;;4.82;1.55;;;14.00;99.90;;;;;;4729617;30;20060;-79
2021/08/09 03:18:05;;;;;;;8.35;1.30;;;14.00;99.90;;;;;;4727992;30;20508;-79
2021/08/09 03:20:32;;;;;;;7.57;2.20;;;14.00;99.90;;;;;;4744040;30;20048;-79
2021/08/09 03:23:00;;;;;;;8.82;1.58;;;14.00;99.90;;;;;;4756858;30;20054;-78
2021/08/09 03:25:27;;;;;;;4.35;1.20;;;14.00;99.90;;;;;;4742770;30;20040;-78
2021/08/09 03:27:54;;;;;;;9.48;2.00;;;14.00;99.90;;;;;;4742033;30;20970;-78
2021/08/09 03:30:21;;;;;;;8.32;1.50;;;14.00;99.90;;;;;;4742094;30;20051;-79
2021/08/09 03:32:47;;;;;;;9.30;1.33;;;14.00;99.90;;;;;;4739517;30;20504;-78
2021/08/09 03:35:14;;;;;;;9.25;1.50;;;14.00;99.90;;;;;;4739731;30;20068;-78
2021/08/09 03:37:40;;;;;;;10.35;1.73;;;14.00;99.90;;;;;;4756598;30;20059;-78
2021/08/09 03:40:08;;;;;;;5.30;0.90;;;14.00;99.90;;;;;;4742395;30;20055;-79
2021/08/09 03:42:35;;;;;;;7.57;1.27;;;14.00;99.90;;;;;;4758683;30;20051;-79
2021/08/09 03:45:02;;;;;;;7.53;1.20;;;14.00;99.90;;;;;;4746125;30;20058;-79
2021/08/09 03:47:28;;;;;;;10.57;1.48;;;14.10;99.90;;;;;;4744570;30;20058;-79
2021/08/09 03:49:55;;;;;;;5.85;1.05;;;14.00;99.90;;;;;;4743955;30;20055;-79
2021/08/09 03:52:21;;;;;;;8.80;1.13;;;14.10;99.90;;;;;;4741388;30;20048;-79
2021/08/09 03:54:48;;;;;;;12.70;1.38;;;14.00;99.90;;;;;;4740690;30;20055;-79
2021/08/09 03:57:14;;;;;;;7.97;1.73;;;14.00;99.90;;;;;;4729575;30;20050;-79
2021/08/09 03:59:41;;;;;;;7.43;1.60;;;14.00;99.90;;;;;;4758155;30;20052;-78
2021/08/09 04:02:12;;;;;;;5.75;1.08;;;14.00;99.90;;;;;;4728550;30;20491;-78
2021/08/09 04:04:39;;;;;;;4.33;1.20;;;14.00;99.90;;;;;;4745334;30;20466;-78
2021/08/09 04:07:05;;;;;;;7.05;1.10;;;14.00;99.90;;;;;;4762398;30;20043;-79
2021/08/09 04:09:32;;;;;;;8.80;1.70;;;14.00;99.90;;;;;;4745707;30;20052;-79
2021/08/09 04:11:58;;;;;;;5.57;1.33;;;14.00;99.90;;;;;;4747417;30;20055;-78
2021/08/09 04:14:25;;;;;;;4.93;1.05;;;14.00;99.90;;;;;;4746553;30;20091;-78
2021/08/09 04:16:52;;;;;;;6.43;1.17;;;14.00;99.90;;;;;;4718919;30;20058;-78
2021/08/09 04:19:18;;;;;;;4.50;0.93;;;14.00;99.90;;;;;;4731187;30;20060;-78
2021/08/09 04:21:45;;;;;;;6.57;0.90;;;14.00;99.90;;;;;;4743322;30;20412;-79
2021/08/09 04:24:12;;;;;;;5.65;1.35;;;14.00;99.90;;;;;;4746493;30;20059;-78
2021/08/09 04:26:38;;;;;;;7.57;0.90;;;14.00;99.90;;;;;;4747692;30;20044;-79
2021/08/09 04:29:04;;;;;;;5.55;1.20;;;14.00;99.90;;;;;;4741890;30;20054;-79
2021/08/09 04:31:31;;;;;;;4.15;1.00;;;13.90;99.90;;;;;;4743720;30;20056;-78
2021/08/09 04:33:59;;;;;;;8.38;1.48;;;14.00;99.90;;;;;;4708884;30;20048;-79
2021/08/09 04:36:26;;;;;;;3.40;1.05;;;14.00;99.90;;;;;;4731037;30;20082;-79
2021/08/09 04:38:52;;;;;;;7.65;1.40;;;14.00;99.90;;;;;;4743068;30;20066;-78
2021/08/09 04:41:19;;;;;;;6.68;1.20;;;14.00;99.90;;;;;;4758349;30;20126;-79
2021/08/09 04:43:46;;;;;;;9.40;1.33;;;14.00;99.90;;;;;;4741655;30;20059;-79
2021/08/09 04:46:16;;;;;;;7.57;1.13;;;14.00;99.90;;;;;;4758677;30;20051;-78
2021/08/09 04:48:43;;;;;;;4.32;1.17;;;14.00;99.90;;;;;;4758016;30;20785;-78
2021/08/09 04:51:10;;;;;;;6.85;1.00;;;14.00;99.90;;;;;;4744469;30;20082;-78
2021/08/09 04:53:39;;;;;;;5.65;1.10;;;14.10;99.90;;;;;;4740032;30;20404;-78
2021/08/09 04:56:05;;;;;;;5.80;1.05;;;14.10;99.90;;;;;;4759168;30;20043;-78
2021/08/09 04:58:36;;;;;;;6.05;1.10;;;14.20;99.90;;;;;;4746671;30;20040;-78
2021/08/09 05:01:03;;;;;;;8.45;0.90;;;14.20;99.90;;;;;;4730268;30;20052;-79
2021/08/09 05:03:39;;;;;;;10.05;1.40;;;14.30;99.90;;;;;;4745785;30;20380;-78
2021/08/09 05:06:10;;;;;;;6.65;1.02;;;14.40;99.90;;;;;;4758159;30;20405;-78
2021/08/09 05:08:39;;;;;;;4.63;1.27;;;14.50;99.90;;;;;;4744848;30;20052;-78
2021/08/09 05:11:05;;;;;;;7.35;1.10;;;14.50;99.90;;;;;;4760237;30;20043;-78
2021/08/09 05:13:33;;;;;;;5.43;1.10;;;14.70;99.90;;;;;;4759760;30;20704;-78
2021/08/09 05:15:59;;;;;;;9.02;1.35;;;14.70;99.90;;;;;;4747088;30;20047;-78
2021/08/09 05:18:26;;;;;;;8.23;1.50;;;14.80;99.90;;;;;;4757647;30;20035;-78
2021/08/09 05:20:52;;;;;;;12.00;1.38;;;14.90;99.90;;;;;;4745249;30;20058;-78
2021/08/09 05:23:18;;;;;;;8.30;1.42;;;14.90;99.90;;;;;;4731084;30;20094;-78
2021/08/09 05:25:45;;;;;;;6.30;1.40;;;14.90;99.90;;;;;;4728644;30;20060;-79
2021/08/09 05:28:11;;;;;;;6.00;1.00;;;15.00;99.90;;;;;;4757379;30;20051;-77
2021/08/09 05:30:38;;;;;;;11.48;1.48;;;15.00;99.90;;;;;;4748072;30;20071;-77
2021/08/09 05:33:04;;;;;;;7.43;1.35;;;15.00;99.90;;;;;;4724249;30;20063;-77
2021/08/09 05:35:31;;;;;;;7.53;0.98;;;15.10;99.90;;;;;;4727170;30;20067;-76
2021/08/09 05:37:57;;;;;;;9.18;1.70;;;15.10;99.90;;;;;;4752923;30;20051;-76
2021/08/09 05:40:24;;;;;;;7.40;3.17;;;15.10;99.90;;;;;;4750794;30;20721;-76
2021/08/09 05:42:51;;;;;;;11.15;3.70;;;15.20;99.90;;;;;;4721041;30;20052;-76
2021/08/09 05:45:20;;;;;;;5.03;2.13;;;15.20;99.90;;;;;;4753872;30;20051;-77
2021/08/09 05:47:47;;;;;;;7.53;1.42;;;15.30;99.90;;;;;;4756055;30;20392;-76
2021/08/09 05:50:13;;;;;;;9.00;1.35;;;15.40;99.90;;;;;;4738057;30;20048;-76
2021/08/09 05:52:51;;;;;;;10.63;1.33;;;15.40;99.90;;;;;;4737358;30;20499;-75
2021/08/09 05:55:18;;;;;;;7.38;1.85;;;15.50;99.90;;;;;;4722810;30;20043;-76
2021/08/09 05:57:45;;;;;;;8.75;1.90;;;15.50;99.90;;;;;;4723967;30;20059;-76
2021/08/09 06:00:13;;;;;;;4.45;1.60;;;15.60;99.90;;;;;;4752782;30;20048;-75
2021/08/09 06:02:43;;;;;;;8.75;1.70;;;15.60;99.90;;;;;;4754460;30;20756;-76
2021/08/09 06:05:16;;;;;;;4.80;1.60;;;15.60;99.90;;;;;;4757663;30;20058;-75
2021/08/09 06:07:46;;;;;;;4.72;1.50;;;15.60;99.90;;;;;;4755712;30;20043;-76
2021/08/09 06:10:12;;;;;;;10.73;1.73;;;15.60;99.90;;;;;;4740221;30;20047;-75
2021/08/09 06:12:39;;;;;;;7.80;2.20;;;15.60;99.90;;;;;;4735322;30;20048;-76
2021/08/09 06:15:07;;;;;;;8.57;2.03;;;15.60;99.90;;;;;;4756436;30;20428;-77
2021/08/09 06:17:35;;;;;;;6.63;1.73;;;15.60;99.90;;;;;;4756602;30;20044;-76
2021/08/09 06:20:04;;;;;;;5.00;1.60;;;15.60;99.90;;;;;;4759274;30;20058;-76
2021/08/09 06:22:32;;;;;;;6.95;1.38;;;15.60;99.90;;;;;;4722797;30;20060;-76
2021/08/09 06:24:59;;;;;;;5.93;1.00;;;15.60;99.90;;;;;;4754590;30;20058;-76
2021/08/09 06:27:26;;;;;;;7.18;1.63;;;15.60;99.90;;;;;;4720565;30;20048;-76
2021/08/09 06:29:53;;;;;;;10.10;1.75;;;15.60;99.90;;;;;;4725214;30;20048;-76
2021/08/09 06:32:20;;;;;;;6.15;1.20;;;15.60;99.90;;;;;;4721765;30;21070;-76
2021/08/09 06:34:47;;;;;;;5.97;1.05;;;15.60;99.90;;;;;;4753195;30;20059;-76
2021/08/09 06:37:16;;;;;;;6.25;1.52;;;15.60;99.90;;;;;;4737766;30;20051;-76
2021/08/09 06:39:43;;;;;;;7.82;1.85;;;15.80;99.90;;;;;;4750425;30;21490;-76
2021/08/09 06:42:11;;;;;;;4.47;1.42;;;16.00;99.90;;;;;;4737458;30;20075;-76
2021/08/09 06:44:43;;;;;;;7.50;2.40;;;16.30;99.90;;;;;;4734418;30;20370;-76
2021/08/09 06:47:11;;;;;;;13.20;2.38;;;16.60;99.90;;;;;;4748190;30;20048;-75
2021/08/09 06:49:38;;;;;;;9.02;1.77;;;16.80;99.90;;;;;;4745412;30;20541;-76
2021/08/09 06:52:05;;;;;;;6.28;1.40;;;17.10;99.90;;;;;;4746990;30;20055;-76
2021/08/09 06:54:32;;;;;;;7.15;2.08;;;17.50;99.90;;;;;;4717856;30;20048;-76
2021/08/09 06:57:06;;;;;;;5.25;1.33;;;17.80;99.90;;;;;;4724808;30;20047;-76
2021/08/09 06:59:33;;;;;;;5.30;1.88;;;18.00;99.90;;;;;;4733502;30;20060;-76
2021/08/09 07:02:03;;;;;;;7.30;1.95;;;18.20;99.90;;;;;;4752946;30;20043;-76
2021/08/09 07:04:30;;;;;;;5.68;2.30;;;18.40;99.90;;;;;;4755790;30;20051;-76
2021/08/09 07:06:57;;;;;;;9.40;2.28;;;18.40;99.90;;;;;;4753956;30;20052;-76
2021/08/09 07:09:25;;;;;;;9.40;1.77;;;18.50;99.90;;;;;;4735818;30;20040;-76
2021/08/09 07:11:51;;;;;;;4.97;1.05;;;18.50;99.90;;;;;;4749801;30;20370;-76
2021/08/09 07:14:20;;;;;;;4.90;1.30;;;18.60;99.90;;;;;;4734069;30;20052;-76
2021/08/09 07:16:49;;;;;;;4.07;1.05;;;18.70;99.90;;;;;;4719386;30;20524;-76
2021/08/09 07:19:16;;;;;;;6.45;1.23;;;18.80;99.90;;;;;;4749815;30;20043;-75
2021/08/09 07:21:43;;;;;;;8.15;1.10;;;18.90;99.90;;;;;;4736527;30;20794;-76
2021/08/09 07:24:11;;;;;;;7.57;1.38;;;19.00;99.90;;;;;;4733883;30;20055;-76
2021/08/09 07:26:37;;;;;;;3.10;1.00;;;19.00;99.90;;;;;;4723134;30;20106;-78
2021/08/09 07:29:04;;;;;;;6.00;0.95;;;19.10;99.90;;;;;;4746448;30;20055;-76
2021/08/09 07:31:33;;;;;;;6.25;1.52;;;19.20;99.90;;;;;;4748633;30;20044;-76
2021/08/09 07:33:59;;;;;;;7.93;1.65;;;19.30;99.90;;;;;;4733288;30;20056;-76
2021/08/09 07:36:27;;;;;;;6.80;1.40;;;19.30;99.90;;;;;;4721524;30;20064;-76
2021/08/09 07:39:02;;;;;;;5.38;0.93;;;19.40;99.90;;;;;;4757945;30;20054;-76
2021/08/09 07:41:30;;;;;;;4.47;0.90;;;19.50;99.90;;;;;;4757651;30;20412;-76
2021/08/09 07:43:56;;;;;;;8.68;1.10;;;19.50;99.90;;;;;;4745228;30;20539;-76
2021/08/09 07:46:24;;;;;;;5.07;0.93;;;19.60;99.90;;;;;;4761161;30;20060;-76
2021/08/09 07:48:54;;;;;;;7.45;1.15;;;19.70;99.90;;;;;;4745569;30;20078;-76
2021/08/09 07:51:21;;;;;;;5.22;1.00;;;19.80;99.90;;;;;;4755787;30;20040;-76
2021/08/09 07:53:47;;;;;;;7.10;1.27;;;19.90;99.90;;;;;;4759017;30;20495;-76
2021/08/09 07:56:14;;;;;;;7.97;3.10;;;19.90;99.90;;;;;;4760172;30;20064;-77
2021/08/09 07:58:41;;;;;;;20.75;12.98;;;20.00;99.90;;;;;;4729898;30;20055;-80
2021/08/09 08:01:09;;;;;;;12.05;3.75;;;20.00;99.90;;;;;;4730272;30;20052;-77
2021/08/09 08:03:36;;;;;;;5.78;1.10;;;20.00;99.90;;;;;;4758984;30;20044;-77
2021/08/09 08:06:03;;;;;;;5.40;1.00;;;20.20;99.90;;;;;;4743027;30;20135;-78
2021/08/09 08:08:29;;;;;;;5.47;1.27;;;20.30;99.90;;;;;;4743395;30;20416;-77
2021/08/09 08:10:58;;;;;;;5.15;0.70;;;20.40;99.90;;;;;;4728098;30;20126;-77
2021/08/09 08:13:24;;;;;;;5.07;0.80;;;20.50;99.90;;;;;;4715515;30;21062;-77
2021/08/09 08:15:52;;;;;;;5.60;1.00;;;20.60;99.90;;;;;;4756000;30;20039;-77
2021/08/09 08:18:20;;;;;;;6.53;0.88;;;20.60;99.90;;;;;;4759156;30;20059;-77
2021/08/09 08:20:48;;;;;;;4.82;0.80;;;20.60;99.90;;;;;;4726013;30;20048;-77
2021/08/09 08:23:14;;;;;;;5.28;1.35;;;20.70;99.90;;;;;;4756601;30;20046;-77
2021/08/09 08:25:42;;;;;;;2.83;0.73;;;20.70;99.90;;;;;;4743731;30;20055;-77
2021/08/09 08:28:09;;;;;;;4.78;0.90;;;20.90;99.90;;;;;;4760340;30;20746;-77
2021/08/09 08:30:35;;;;;;;4.65;1.02;;;20.90;99.90;;;;;;4754424;30;20047;-77
2021/08/09 08:33:07;;;;;;;6.85;1.42;;;20.90;99.90;;;;;;4713799;30;20043;-78
2021/08/09 08:35:36;;;;;;;4.80;1.00;;;20.90;99.90;;;;;;4754883;30;20440;-77
2021/08/09 08:38:03;;;;;;;4.50;0.98;;;21.00;99.90;;;;;;4729129;30;20067;-76
2021/08/09 08:40:33;;;;;;;5.07;1.15;;;21.20;99.90;;;;;;4742280;30;20052;-76
2021/08/09 08:42:59;;;;;;;3.22;0.70;;;21.30;99.00;;;;;;4756042;30;20047;-76
2021/08/09 08:45:27;;;;;;;5.00;0.90;;;21.40;98.70;;;;;;4730954;30;20055;-76
2021/08/09 08:48:00;;;;;;;6.65;0.80;;;21.60;98.80;;;;;;4730607;30;20072;-76
2021/08/09 08:50:30;;;;;;;3.22;0.80;;;21.80;98.50;;;;;;4756685;30;20436;-77
2021/08/09 08:52:56;;;;;;;3.33;0.80;;;21.80;98.20;;;;;;4756883;30;20065;-76
2021/08/09 08:55:24;;;;;;;4.50;0.70;;;21.90;98.20;;;;;;4726388;30;20040;-76
2021/08/09 08:57:52;;;;;;;4.78;0.90;;;21.80;97.50;;;;;;4754311;30;20059;-76
2021/08/09 09:00:18;;;;;;;3.80;0.98;;;21.80;97.40;;;;;;4758467;30;20051;-76
2021/08/09 09:02:45;;;;;;;3.47;0.68;;;21.80;97.00;;;;;;4735074;30;20056;-76
2021/08/09 09:05:19;;;;;;;4.10;1.23;;;21.80;96.80;;;;;;4755206;30;20051;-76
2021/08/09 09:07:54;;;;;;;3.53;0.73;;;21.80;96.80;;;;;;4759806;30;20044;-76
2021/08/09 09:10:23;;;;;;;3.35;0.70;;;21.80;96.50;;;;;;4756729;30;20046;-76
2021/08/09 09:13:16;;;;;;;2.65;0.57;;;21.90;95.90;;;;;;4756775;30;20044;-76
2021/08/09 09:16:04;;;;;;;2.83;0.55;;;22.00;95.50;;;;;;4742860;30;20420;-76
2021/08/09 09:18:48;;;;;;;3.20;0.70;;;22.20;95.30;;;;;;4754906;30;20043;-77
2021/08/09 09:21:27;;;;;;;3.17;1.13;;;22.50;94.90;;;;;;4754764;30;20032;-76
2021/08/09 09:24:05;;;;;;;6.65;0.50;;;22.80;94.50;;;;;;4753885;30;20059;-77
2021/08/09 09:26:31;;;;;;;6.82;0.90;;;23.00;94.20;;;;;;4757376;30;20051;-76
2021/08/09 09:29:09;;;;;;;4.35;0.60;;;23.10;93.90;;;;;;4758359;30;20056;-76
2021/08/09 09:31:36;;;;;;;2.80;1.23;;;23.10;93.60;;;;;;4754055;30;20052;-76
2021/08/09 09:34:07;;;;;;;4.40;0.80;;;23.10;93.50;;;;;;4753702;30;20055;-76
2021/08/09 09:36:47;;;;;;;3.53;0.60;;;23.20;93.00;;;;;;4751647;30;20495;-76
2021/08/09 09:39:40;;;;;;;2.70;0.60;;;23.30;92.80;;;;;;4750721;30;20032;-76
2021/08/09 09:42:11;;;;;;;3.85;0.70;;;23.50;92.50;;;;;;4753506;30;20032;-76
2021/08/09 09:44:40;;;;;;;3.13;0.60;;;23.40;92.10;;;;;;4749349;30;20048;-77
2021/08/09 09:47:26;;;;;;;2.97;0.70;;;23.40;92.20;;;;;;4756415;30;20043;-76
2021/08/09 09:49:55;;;;;;;2.38;0.80;;;23.40;92.40;;;;;;4754043;30;20052;-77
2021/08/09 09:52:45;;;;;;;3.10;0.57;;;23.40;92.60;;;;;;4735954;30;20039;-77
2021/08/09 09:55:14;;;;;;;2.78;0.60;;;23.50;91.80;;;;;;4738489;30;20056;-77
2021/08/09 09:57:44;;;;;;;4.20;0.73;;;23.70;91.50;;;;;;4752931;30;20523;-77
2021/08/09 10:00:13;;;;;;;5.15;0.98;;;24.00;91.50;;;;;;4738239;30;20067;-77
2021/08/09 10:02:41;;;;;;;4.07;1.02;;;24.10;91.20;;;;;;4754422;30;20308;-77
2021/08/09 10:05:08;;;;;;;3.28;0.70;;;24.20;90.70;;;;;;4757904;30;20139;-77
2021/08/09 10:07:36;;;;;;;6.85;0.90;;;24.10;90.40;;;;;;4753374;30;20794;-77
2021/08/09 10:10:05;;;;;;;4.75;1.00;;;24.20;90.10;;;;;;4756318;30;20062;-76
2021/08/09 10:12:33;;;;;;;4.95;0.80;;;24.00;89.80;;;;;;4751427;30;20047;-76
2021/08/09 10:15:00;;;;;;;2.55;0.70;;;23.90;90.00;;;;;;4754920;30;20051;-77
2021/08/09 10:17:29;;;;;;;2.47;0.70;;;23.70;90.30;;;;;;4753650;30;21294;-76
2021/08/09 10:20:02;;;;;;;3.13;0.82;;;23.50;90.40;;;;;;4749678;30;20051;-76
2021/08/09 10:22:28;;;;;;;2.40;0.60;;;23.60;90.10;;;;;;4759271;29;20043;-76
2021/08/09 10:24:56;;;;;;;5.07;0.60;;;23.70;90.20;;;;;;4752276;30;20047;-75
2021/08/09 10:27:47;;;;;;;2.35;0.60;;;23.90;90.00;;;;;;4747313;30;20055;-76
2021/08/09 10:30:22;;;;;;;2.83;0.60;;;24.10;90.10;;;;;;4749308;30;20051;-77
2021/08/09 10:32:51;;;;;;;3.38;0.50;;;24.40;88.80;;;;;;4758023;30;20358;-77
2021/08/09 10:38:23;;;;;;;3.40;0.70;;;24.50;85.80;;;;;;4761192;30;20655;-78
2021/08/09 10:41:08;;;;;;;3.38;0.80;;;24.40;86.20;;;;;;4748607;30;20046;-78
2021/08/09 10:43:40;;;;;;;4.20;0.63;;;24.20;86.50;;;;;;4750773;30;20048;-77
2021/08/09 10:46:39;;;;;;;3.63;0.80;;;24.10;86.30;;;;;;4752246;30;20046;-77
2021/08/09 10:49:07;;;;;;;4.88;0.70;;;24.10;86.50;;;;;;4718803;30;20055;-76
2021/08/09 10:51:51;;;;;;;3.38;0.80;;;24.10;86.00;;;;;;4754954;30;20042;-76
2021/08/09 10:54:37;;;;;;;3.25;0.52;;;24.10;85.50;;;;;;4751500;30;20465;-75
2021/08/09 10:57:04;;;;;;;3.33;0.68;;;24.20;85.60;;;;;;4740351;30;20047;-77
2021/08/09 10:59:37;;;;;;;2.70;0.50;;;24.40;85.20;;;;;;4722728;30;21387;-77
2021/08/09 11:02:05;;;;;;;2.33;0.50;;;24.40;84.80;;;;;;4752206;30;20048;-77
2021/08/09 11:04:31;;;;;;;3.50;0.60;;;24.40;85.30;;;;;;4749158;30;20054;-77
2021/08/09 11:07:13;;;;;;;4.85;0.65;;;24.50;85.00;;;;;;4760812;30;20059;-78
2021/08/09 11:09:41;;;;;;;3.33;0.63;;;24.50;84.50;;;;;;4743112;30;20417;-79
2021/08/09 11:12:20;;;;;;;2.50;0.47;;;24.40;84.40;;;;;;4758762;30;20046;-79
2021/08/09 11:15:11;;;;;;;2.13;0.40;;;24.30;83.30;;;;;;4758359;30;20036;-78
2021/08/09 11:17:41;;;;;;;3.70;0.70;;;24.20;82.80;;;;;;4757455;30;20040;-79
2021/08/09 11:20:22;;;;;;;3.80;0.85;;;24.20;83.30;;;;;;4759269;30;20042;-78
2021/08/09 11:23:16;;;;;;;3.15;0.60;;;24.10;83.50;;;;;;4758844;30;20051;-79
2021/08/09 11:25:47;;;;;;;2.78;0.70;;;23.90;83.90;;;;;;4751767;30;20063;-79
2021/08/09 11:28:23;;;;;;;1.25;0.50;;;23.60;85.80;;;;;;4758741;30;20051;-80
2021/08/09 11:30:57;;;;;;;3.20;0.50;;;23.20;89.20;;;;;;4752285;30;20048;-79
2021/08/09 11:33:39;;;;;;;3.38;0.60;;;22.80;90.80;;;;;;4751927;30;20032;-79
2021/08/09 11:36:10;;;;;;;1.38;0.40;;;22.50;91.90;;;;;;4757173;30;20039;-77
2021/08/09 11:38:47;;;;;;;2.65;0.60;;;22.20;92.50;;;;;;4744437;30;20079;-77
2021/08/09 11:41:19;;;;;;;2.03;0.50;;;21.90;93.10;;;;;;4742956;30;20052;-76
2021/08/09 11:43:46;;;;;;;1.90;0.50;;;21.70;93.10;;;;;;4754338;30;20102;-77
2021/08/09 11:46:16;;;;;;;2.85;0.57;;;21.50;93.50;;;;;;4741045;30;20048;-77
2021/08/09 11:48:47;;;;;;;2.13;0.50;;;21.40;93.70;;;;;;4750603;30;20059;-76
2021/08/09 11:51:29;;;;;;;2.50;0.57;;;21.60;94.10;;;;;;4750285;30;20074;-78
2021/08/09 11:53:58;;;;;;;2.22;0.57;;;21.90;94.20;;;;;;4751050;30;20054;-77
2021/08/09 11:56:35;;;;;;;3.15;0.50;;;22.30;93.90;;;;;;4750012;30;20032;-79
2021/08/09 11:59:15;;;;;;;4.57;0.60;;;22.60;93.70;;;;;;4749096;30;20062;-76
2021/08/09 12:01:47;;;;;;;3.25;0.60;;;22.90;93.10;;;;;;4738471;30;20043;-79
2021/08/09 12:04:15;;;;;;;1.52;0.60;;;23.00;92.60;;;;;;4751532;30;20040;-77
2021/08/09 12:06:49;;;;;;;3.90;0.82;;;23.20;92.20;;;;;;4751344;30;20040;-76
2021/08/09 12:09:17;;;;;;;4.07;0.85;;;23.20;91.60;;;;;;4732801;30;20143;-76
2021/08/09 12:11:55;;;;;;;3.25;0.60;;;23.30;91.10;;;;;;4755135;30;20032;-79
2021/08/09 12:14:22;;;;;;;2.33;0.40;;;23.30;90.90;;;;;;4744862;30;20040;-78
2021/08/09 12:16:55;;;;;;;2.33;0.50;;;23.40;90.10;;;;;;4756786;30;20040;-78
2021/08/09 12:19:35;;;;;;;1.80;0.50;;;23.60;89.50;;;;;;4759294;30;20515;-77
2021/08/09 12:22:15;;;;;;;4.97;0.82;;;23.60;89.60;;;;;;4759808;30;20046;-78
2021/08/09 12:24:44;;;;;;;1.45;0.40;;;23.60;89.40;;;;;;4738015;30;20068;-78
2021/08/09 12:27:17;;;;;;;4.75;0.80;;;23.70;88.80;;;;;;4757213;30;20050;-78
2021/08/09 12:30:05;;;;;;;2.95;0.50;;;23.90;88.20;;;;;;4757584;30;20043;-78
2021/08/09 12:32:36;;;;;;;1.83;0.40;;;24.10;87.70;;;;;;4752277;30;20036;-79
2021/08/09 12:35:04;;;;;;;2.88;0.60;;;24.70;85.80;;;;;;4737096;30;20519;-78
2021/08/09 12:37:31;;;;;;;2.15;0.60;;;25.50;83.30;;;;;;4752730;30;20056;-79
2021/08/09 12:40:15;;;;;;;2.25;0.60;;;26.30;82.50;;;;;;4722663;30;20543;-79
2021/08/09 12:43:02;;;;;;;2.25;0.40;;;27.30;79.50;;;;;;4757411;30;20048;-78
2021/08/09 12:45:28;;;;;;;1.67;0.45;;;27.90;75.70;;;;;;4754324;30;20047;-79
2021/08/09 12:47:55;;;;;;;2.33;0.47;;;28.10;73.40;;;;;;4744126;30;20071;-79
2021/08/09 12:50:21;;;;;;;2.88;0.50;;;28.20;72.80;;;;;;4739842;30;20377;-79
2021/08/09 12:52:48;;;;;;;3.30;0.50;;;28.00;71.50;;;;;;4757838;30;20040;-79
2021/08/09 12:55:14;;;;;;;2.15;0.55;;;27.60;71.70;;;;;;4745476;30;20048;-80
2021/08/09 12:57:40;;;;;;;1.63;0.60;;;27.30;71.80;;;;;;4745122;30;20055;-79
2021/08/09 13:00:08;;;;;;;3.22;0.60;;;27.30;72.40;;;;;;4725059;30;20512;-79
2021/08/09 13:02:35;;;;;;;1.77;0.40;;;27.60;72.60;;;;;;4742497;30;20094;-79